Time;durP1;ratioP1;P1;durP2;ratioP2;P2;SDS_P1;SDS_P2;PMS_P1;PMS_P2;Temp;Humidity;BMP_temperature;BMP_pressure;BME280_temperature;BME280_humidity;BME280_pressure;Samples;Min_cycle;Max_cycle;Signal;HPM_P1;HPM_P2
2023/04/02 00:01:16;;;;;;;9.48;4.18;;;3.90;99.90;;;;;;5035035;28;20132;-68
2023/04/02 00:03:44;;;;;;;7.03;2.88;;;3.90;99.90;;;;;;5017491;28;20087;-67
2023/04/02 00:06:38;;;;;;;7.40;2.90;;;3.90;99.90;;;;;;5017622;28;20037;-68
2023/04/02 00:09:13;;;;;;;8.10;2.97;;;3.80;99.90;;;;;;5017670;28;20052;-68
2023/04/02 00:11:40;;;;;;;8.05;2.70;;;3.80;99.90;;;;;;5018094;28;20041;-67
2023/04/02 00:14:16;;;;;;;5.90;2.53;;;3.80;99.90;;;;;;5017267;28;20048;-68
2023/04/02 00:16:43;;;;;;;7.57;2.65;;;3.80;99.90;;;;;;5017096;28;20038;-68
2023/04/02 00:19:17;;;;;;;9.30;3.33;;;3.70;99.90;;;;;;5017138;28;20045;-68
2023/04/02 00:21:45;;;;;;;8.35;2.97;;;3.70;99.90;;;;;;5035742;28;20437;-68
2023/04/02 00:24:18;;;;;;;9.20;3.45;;;3.80;99.90;;;;;;5016382;28;20045;-68
2023/04/02 00:26:46;;;;;;;6.65;2.90;;;3.70;99.90;;;;;;5017784;28;20053;-68
2023/04/02 00:29:15;;;;;;;7.05;3.30;;;3.70;99.90;;;;;;5034911;28;20398;-68
2023/04/02 00:31:46;;;;;;;9.68;3.40;;;3.60;99.90;;;;;;5016656;28;20124;-68
2023/04/02 00:34:41;;;;;;;7.72;2.88;;;3.60;99.90;;;;;;5017097;28;20460;-68
2023/04/02 00:37:17;;;;;;;10.25;3.20;;;3.60;99.90;;;;;;5021777;28;20041;-67
2023/04/02 00:39:43;;;;;;;10.07;2.83;;;3.60;99.90;;;;;;5034680;28;20041;-68
2023/04/02 00:42:11;;;;;;;10.05;3.50;;;3.60;99.90;;;;;;5016815;28;20052;-68
2023/04/02 00:44:42;;;;;;;9.25;3.25;;;3.50;99.90;;;;;;5034591;28;20151;-68
2023/04/02 00:47:25;;;;;;;9.60;3.25;;;3.50;99.90;;;;;;5034631;28;20045;-68
2023/04/02 00:50:17;;;;;;;9.75;2.85;;;3.50;99.90;;;;;;5035141;28;20505;-68
2023/04/02 00:52:47;;;;;;;6.82;3.08;;;3.50;99.90;;;;;;5017853;28;20041;-68
2023/04/02 00:55:21;;;;;;;5.95;2.47;;;3.40;99.90;;;;;;5036321;28;20045;-68
2023/04/02 00:57:49;;;;;;;5.57;2.90;;;3.40;99.90;;;;;;5020528;28;20094;-68
2023/04/02 01:00:30;;;;;;;7.95;3.10;;;3.40;99.90;;;;;;5053515;28;20033;-68
2023/04/02 01:03:18;;;;;;;7.90;2.10;;;3.40;99.90;;;;;;5054642;28;20041;-68
2023/04/02 01:05:56;;;;;;;7.63;2.75;;;3.30;99.90;;;;;;5036151;28;20048;-68
2023/04/02 01:08:26;;;;;;;6.32;2.42;;;3.30;99.90;;;;;;5045286;28;20107;-68
2023/04/02 01:11:01;;;;;;;8.45;2.47;;;3.30;99.90;;;;;;5016652;28;20091;-68
2023/04/02 01:13:40;;;;;;;5.15;2.20;;;3.30;99.90;;;;;;5015714;28;20041;-68
2023/04/02 01:16:28;;;;;;;7.13;2.50;;;3.30;99.90;;;;;;5016298;28;20092;-68
2023/04/02 01:19:18;;;;;;;6.05;2.38;;;3.30;99.90;;;;;;5004809;28;20053;-68
2023/04/02 01:22:13;;;;;;;7.82;2.45;;;3.20;99.90;;;;;;5016131;28;20041;-68
2023/04/02 01:24:42;;;;;;;5.85;2.35;;;3.20;99.90;;;;;;5016740;28;20053;-68
2023/04/02 01:27:28;;;;;;;6.65;2.50;;;3.20;99.90;;;;;;5032883;28;20038;-69
2023/04/02 01:29:57;;;;;;;8.75;2.70;;;3.20;99.90;;;;;;5000252;28;20041;-68
2023/04/02 01:32:26;;;;;;;8.95;2.08;;;3.10;99.90;;;;;;5033400;28;20095;-68
2023/04/02 01:34:52;;;;;;;4.85;1.85;;;3.10;99.90;;;;;;5015797;28;20042;-68
2023/04/02 01:37:37;;;;;;;8.18;2.28;;;3.10;99.90;;;;;;4999923;28;20091;-68
2023/04/02 01:40:11;;;;;;;6.88;2.40;;;3.10;99.90;;;;;;4999818;28;20065;-68
2023/04/02 01:42:52;;;;;;;5.82;2.30;;;3.00;99.90;;;;;;5015192;28;20056;-68
2023/04/02 01:45:21;;;;;;;8.60;2.15;;;3.00;99.90;;;;;;5033612;28;20061;-68
2023/04/02 01:47:48;;;;;;;4.65;2.03;;;3.00;99.90;;;;;;5033388;28;20034;-68
2023/04/02 01:50:30;;;;;;;6.07;2.35;;;3.00;99.90;;;;;;5015554;28;20045;-68
2023/04/02 01:53:00;;;;;;;5.38;1.88;;;3.00;99.90;;;;;;5016059;28;20486;-67
2023/04/02 01:55:41;;;;;;;5.80;1.70;;;3.00;99.90;;;;;;5014886;28;20046;-68
2023/04/02 01:58:10;;;;;;;10.48;2.95;;;2.90;99.90;;;;;;5000579;28;20040;-67
2023/04/02 02:00:44;;;;;;;6.53;2.47;;;2.90;99.90;;;;;;5015916;28;20041;-68
2023/04/02 02:03:11;;;;;;;12.82;2.63;;;2.90;99.90;;;;;;5032203;28;20048;-68
2023/04/02 02:05:37;;;;;;;8.82;1.90;;;2.90;99.90;;;;;;5015486;28;20084;-67
2023/04/02 02:08:04;;;;;;;5.80;1.88;;;2.90;99.90;;;;;;5015593;28;20076;-67
2023/04/02 02:10:35;;;;;;;6.45;2.03;;;2.90;99.90;;;;;;5014914;28;20037;-67
2023/04/02 02:13:01;;;;;;;7.78;1.65;;;2.80;99.90;;;;;;5015385;28;20095;-67
2023/04/02 02:15:30;;;;;;;7.20;1.80;;;2.80;99.90;;;;;;5015152;28;20053;-68
2023/04/02 02:18:03;;;;;;;7.88;1.67;;;2.80;99.90;;;;;;5032508;28;20112;-68
2023/04/02 02:20:29;;;;;;;5.60;1.67;;;2.80;99.90;;;;;;4998859;28;20045;-67
2023/04/02 02:22:56;;;;;;;6.25;2.13;;;2.70;99.90;;;;;;5014406;28;20085;-67
2023/04/02 02:25:29;;;;;;;9.32;2.95;;;2.70;99.90;;;;;;5010674;28;20076;-67
2023/04/02 02:28:04;;;;;;;8.05;2.05;;;2.70;99.90;;;;;;5035317;28;20053;-67
2023/04/02 02:30:47;;;;;;;7.03;1.90;;;2.70;99.90;;;;;;5051999;28;20080;-67
2023/04/02 02:33:42;;;;;;;4.28;2.05;;;2.70;99.90;;;;;;5034491;28;20493;-69
2023/04/02 02:36:14;;;;;;;9.60;1.67;;;2.70;99.90;;;;;;5034883;28;20094;-69
2023/04/02 02:39:03;;;;;;;4.68;1.60;;;2.60;99.90;;;;;;5033634;28;20485;-69
2023/04/02 02:41:37;;;;;;;5.07;1.33;;;2.60;99.90;;;;;;5014946;28;20048;-69
2023/04/02 02:44:05;;;;;;;5.63;1.58;;;2.60;99.90;;;;;;5014053;28;20053;-70
2023/04/02 02:46:32;;;;;;;5.05;1.45;;;2.60;99.90;;;;;;5015458;28;20041;-69
2023/04/02 02:49:00;;;;;;;4.93;1.42;;;2.60;99.90;;;;;;5015304;28;20068;-68
2023/04/02 02:51:43;;;;;;;6.72;1.90;;;2.60;99.90;;;;;;5014042;28;20046;-68
2023/04/02 02:54:10;;;;;;;5.13;1.67;;;2.60;99.90;;;;;;5014665;28;20049;-68
2023/04/02 02:56:43;;;;;;;5.28;1.65;;;2.60;99.90;;;;;;4998706;28;20034;-68
2023/04/02 02:59:10;;;;;;;6.88;2.75;;;2.60;99.90;;;;;;4997292;28;20050;-68
2023/04/02 03:01:36;;;;;;;5.38;1.70;;;2.60;99.90;;;;;;5015113;28;20434;-68
2023/04/02 03:04:02;;;;;;;4.68;1.45;;;2.50;99.90;;;;;;5014490;28;20048;-68
2023/04/02 03:06:29;;;;;;;5.13;1.48;;;2.50;99.90;;;;;;5013936;28;20034;-68
2023/04/02 03:09:00;;;;;;;10.45;1.73;;;2.50;99.90;;;;;;4998441;28;20045;-68
2023/04/02 03:11:41;;;;;;;5.80;1.67;;;2.50;99.90;;;;;;4998115;28;20128;-68
2023/04/02 03:14:21;;;;;;;7.25;1.77;;;2.40;99.90;;;;;;5031163;28;20037;-67
2023/04/02 03:16:53;;;;;;;5.40;1.60;;;2.40;99.90;;;;;;5015050;28;20073;-68
2023/04/02 03:19:42;;;;;;;3.45;1.40;;;2.40;99.90;;;;;;5013311;28;20124;-68
2023/04/02 03:22:15;;;;;;;5.88;1.38;;;2.40;99.90;;;;;;5013623;28;20049;-67
2023/04/02 03:24:59;;;;;;;8.30;2.00;;;2.40;99.90;;;;;;5032068;28;20645;-68
2023/04/02 03:27:37;;;;;;;6.10;1.70;;;2.40;99.90;;;;;;5030672;28;20041;-67
2023/04/02 03:30:13;;;;;;;7.25;1.75;;;2.40;99.90;;;;;;5031967;28;20120;-67
2023/04/02 03:32:42;;;;;;;5.50;1.58;;;2.40;99.90;;;;;;5014728;28;20049;-68
2023/04/02 03:35:27;;;;;;;5.93;2.45;;;2.40;99.90;;;;;;5012982;28;20042;-68
2023/04/02 03:38:11;;;;;;;9.45;1.90;;;2.40;99.90;;;;;;5032378;28;20040;-68
2023/04/02 03:41:02;;;;;;;5.38;1.55;;;2.30;99.90;;;;;;5013863;28;20042;-68
2023/04/02 03:43:33;;;;;;;5.93;1.50;;;2.30;99.90;;;;;;4997514;28;20061;-67
2023/04/02 03:46:23;;;;;;;7.90;1.92;;;2.30;99.90;;;;;;5014418;28;20046;-67
2023/04/02 03:48:53;;;;;;;5.53;1.70;;;2.30;99.90;;;;;;5013862;28;20406;-67
2023/04/02 03:51:37;;;;;;;5.72;1.48;;;2.20;99.90;;;;;;5014028;28;20049;-68
2023/04/02 03:54:04;;;;;;;10.73;2.00;;;2.30;99.90;;;;;;5013937;28;20049;-67
2023/04/02 03:56:38;;;;;;;5.72;1.70;;;2.20;99.90;;;;;;4997175;28;20076;-68
2023/04/02 03:59:14;;;;;;;8.05;1.88;;;2.30;99.90;;;;;;5014176;28;20064;-68
2023/04/02 04:01:59;;;;;;;4.78;1.50;;;2.20;99.90;;;;;;4997439;28;20049;-67
2023/04/02 04:04:27;;;;;;;7.07;2.28;;;2.10;99.90;;;;;;5013685;28;20081;-67
2023/04/02 04:06:55;;;;;;;5.07;1.58;;;2.20;99.90;;;;;;4997967;28;20052;-67
2023/04/02 04:09:37;;;;;;;8.95;2.15;;;2.20;99.90;;;;;;5030643;28;20049;-68
2023/04/02 04:12:25;;;;;;;6.45;1.67;;;2.20;99.90;;;;;;5031510;28;20100;-67
2023/04/02 04:15:05;;;;;;;9.55;1.90;;;2.10;99.90;;;;;;5024256;28;20540;-68
2023/04/02 04:17:37;;;;;;;6.72;2.53;;;2.10;99.90;;;;;;5033337;28;20040;-68
2023/04/02 04:20:20;;;;;;;7.53;2.85;;;2.10;99.90;;;;;;5033781;28;20116;-68
2023/04/02 04:22:48;;;;;;;7.53;2.08;;;2.10;99.90;;;;;;5016434;28;20547;-68
2023/04/02 04:25:21;;;;;;;4.45;1.55;;;2.00;99.90;;;;;;5050754;28;20123;-68
2023/04/02 04:28:06;;;;;;;5.60;1.27;;;2.10;99.90;;;;;;5033984;28;20037;-68
2023/04/02 04:30:51;;;;;;;5.70;1.25;;;2.10;99.90;;;;;;4998342;28;20378;-68
2023/04/02 04:33:24;;;;;;;7.15;1.83;;;2.10;99.90;;;;;;5031119;28;20399;-68
2023/04/02 04:36:00;;;;;;;6.30;1.40;;;2.10;99.90;;;;;;5013819;28;20124;-68
2023/04/02 04:38:39;;;;;;;5.15;1.85;;;2.10;99.90;;;;;;5012596;28;20099;-68
2023/04/02 04:41:05;;;;;;;5.68;1.60;;;2.00;99.90;;;;;;4997035;28;20482;-67
2023/04/02 04:43:57;;;;;;;4.95;1.95;;;2.10;99.90;;;;;;5013303;28;20088;-67
2023/04/02 04:46:54;;;;;;;5.03;1.48;;;2.10;99.90;;;;;;5017119;28;20099;-67
2023/04/02 04:49:32;;;;;;;6.97;1.70;;;2.10;99.90;;;;;;5016936;28;20049;-68
2023/04/02 04:52:06;;;;;;;7.10;1.80;;;2.10;99.90;;;;;;5000417;28;20099;-68
2023/04/02 04:54:36;;;;;;;5.90;1.52;;;2.10;99.90;;;;;;5017315;28;20496;-68
2023/04/02 04:57:03;;;;;;;6.15;1.60;;;2.10;99.90;;;;;;5016908;28;20048;-67
2023/04/02 04:59:43;;;;;;;6.07;1.50;;;2.10;99.90;;;;;;5016142;28;20041;-67
2023/04/02 05:02:27;;;;;;;9.43;4.45;;;2.10;99.90;;;;;;5016485;28;20136;-67
2023/04/02 05:04:53;;;;;;;13.70;8.57;;;2.10;99.90;;;;;;5033939;28;20124;-68
2023/04/02 05:07:31;;;;;;;5.85;2.45;;;2.10;99.90;;;;;;5034256;28;20494;-67
2023/04/02 05:10:23;;;;;;;8.55;2.72;;;2.00;99.90;;;;;;5016798;28;20041;-67
2023/04/02 05:12:58;;;;;;;8.18;1.67;;;2.10;99.90;;;;;;5014111;28;20057;-68
2023/04/02 05:15:29;;;;;;;7.93;3.33;;;2.10;99.90;;;;;;5016372;28;20501;-67
2023/04/02 05:18:19;;;;;;;6.00;3.22;;;2.10;99.90;;;;;;5017090;28;20064;-67
2023/04/02 05:20:51;;;;;;;7.57;2.55;;;2.10;99.90;;;;;;4999797;28;20425;-67
2023/04/02 05:23:22;;;;;;;7.30;2.88;;;2.10;99.90;;;;;;5033730;28;20533;-67
2023/04/02 05:26:00;;;;;;;4.22;2.22;;;2.10;99.90;;;;;;4999431;28;20124;-68
2023/04/02 05:28:38;;;;;;;4.97;1.60;;;2.10;99.90;;;;;;5000356;28;20095;-67
2023/04/02 05:31:20;;;;;;;5.65;1.95;;;2.10;99.90;;;;;;5000196;28;20037;-67
2023/04/02 05:33:47;;;;;;;6.38;2.83;;;2.10;99.90;;;;;;5015700;28;20045;-68
2023/04/02 05:36:23;;;;;;;5.95;1.90;;;2.10;99.90;;;;;;4999536;28;20511;-67
2023/04/02 05:38:50;;;;;;;5.57;1.88;;;2.20;99.90;;;;;;5016253;28;20073;-67
2023/04/02 05:41:27;;;;;;;5.93;1.67;;;2.20;99.90;;;;;;5032788;28;20041;-67
2023/04/02 05:44:20;;;;;;;4.82;1.67;;;2.20;99.90;;;;;;5016196;28;20046;-67
2023/04/02 05:47:02;;;;;;;6.82;1.50;;;2.20;99.90;;;;;;5016241;28;20037;-67
2023/04/02 05:49:46;;;;;;;5.75;1.80;;;2.20;99.90;;;;;;5033678;28;20087;-68
2023/04/02 05:52:16;;;;;;;10.50;1.88;;;2.30;99.90;;;;;;5015690;28;20044;-67
2023/04/02 05:54:53;;;;;;;6.90;2.10;;;2.30;99.90;;;;;;5032992;28;20103;-67
2023/04/02 05:57:33;;;;;;;7.15;2.80;;;2.30;99.90;;;;;;5032420;28;20041;-68
2023/04/02 06:00:06;;;;;;;7.00;2.45;;;2.30;99.90;;;;;;5016378;28;20043;-67
2023/04/02 06:02:38;;;;;;;9.98;1.75;;;2.40;99.90;;;;;;5015024;28;20048;-67
2023/04/02 06:05:17;;;;;;;6.68;2.05;;;2.40;99.90;;;;;;5015697;28;20049;-67
2023/04/02 06:07:57;;;;;;;5.28;1.40;;;2.50;99.90;;;;;;5016499;28;20109;-67
2023/04/02 06:10:28;;;;;;;7.57;2.13;;;2.60;99.90;;;;;;5023887;28;20041;-68
2023/04/02 06:13:01;;;;;;;6.13;2.08;;;2.60;99.90;;;;;;5033599;28;20178;-68
2023/04/02 06:15:29;;;;;;;8.38;4.32;;;2.60;99.90;;;;;;5033279;28;20037;-68
2023/04/02 06:18:21;;;;;;;7.28;3.30;;;2.70;99.90;;;;;;5035363;28;20062;-68
2023/04/02 06:20:48;;;;;;;9.65;3.13;;;2.70;99.90;;;;;;5053106;28;20370;-69
2023/04/02 06:23:19;;;;;;;7.65;2.47;;;2.70;99.90;;;;;;5033916;28;20041;-68
2023/04/02 06:25:54;;;;;;;5.68;2.17;;;2.80;99.90;;;;;;5002604;28;20593;-68
2023/04/02 06:28:26;;;;;;;6.18;1.95;;;2.90;99.90;;;;;;4999741;28;20042;-69
2023/04/02 06:30:56;;;;;;;7.95;3.92;;;2.90;99.90;;;;;;5037013;28;20168;-69
2023/04/02 06:33:22;;;;;;;5.63;2.88;;;2.90;99.90;;;;;;5052535;28;20056;-69
2023/04/02 06:35:50;;;;;;;5.57;1.63;;;3.00;99.90;;;;;;5048238;28;20029;-69
2023/04/02 06:38:25;;;;;;;4.47;2.08;;;3.10;99.90;;;;;;5021561;28;20040;-68
2023/04/02 06:40:57;;;;;;;;;;;3.10;99.90;;;;;;5049866;28;20046;-68
2023/04/02 06:43:32;;;;;;;14.30;11.00;;;3.20;99.90;;;;;;5024210;28;20398;-69
2023/04/02 06:46:07;;;;;;;5.78;2.30;;;3.30;99.90;;;;;;5032400;28;20053;-69
2023/04/02 06:48:36;;;;;;;5.70;2.15;;;3.30;99.90;;;;;;5030149;28;20094;-69
2023/04/02 06:51:08;;;;;;;10.65;2.20;;;3.40;99.90;;;;;;5028309;28;20152;-68
2023/04/02 06:53:44;;;;;;;7.00;1.95;;;3.50;99.90;;;;;;5032125;28;20049;-68
2023/04/02 06:56:53;;;;;;;6.90;1.40;;;3.50;99.90;;;;;;5013356;28;20513;-68
2023/04/02 06:59:19;;;;;;;4.25;1.33;;;3.60;99.90;;;;;;4935758;28;20078;-68
2023/04/02 07:02:05;;;;;;;4.28;1.20;;;3.70;99.90;;;;;;4941633;29;20564;-68
2023/04/02 07:04:32;;;;;;;4.60;1.65;;;3.80;99.90;;;;;;4971638;28;20056;-68
2023/04/02 07:06:58;;;;;;;9.00;2.05;;;3.80;99.90;;;;;;5044522;28;20489;-68
2023/04/02 07:09:24;;;;;;;4.78;1.10;;;3.80;99.90;;;;;;5028974;28;20764;-68
2023/04/02 07:11:50;;;;;;;5.07;1.33;;;4.00;99.90;;;;;;5030229;28;20098;-68
2023/04/02 07:14:16;;;;;;;4.40;1.70;;;4.10;99.90;;;;;;5017782;28;20037;-68
2023/04/02 07:16:42;;;;;;;16.95;7.28;;;4.10;99.90;;;;;;5015633;28;20041;-68
2023/04/02 07:19:19;;;;;;;19.02;6.85;;;4.10;99.90;;;;;;5048094;28;20481;-68
2023/04/02 07:21:45;;;;;;;13.63;5.13;;;4.20;99.90;;;;;;5012154;28;20052;-68
2023/04/02 07:24:11;;;;;;;7.00;1.70;;;4.20;99.90;;;;;;5011297;28;20831;-68
2023/04/02 07:26:37;;;;;;;14.80;5.68;;;4.30;99.90;;;;;;5015712;28;20029;-68
2023/04/02 07:29:12;;;;;;;35.92;14.82;;;4.30;99.90;;;;;;5014605;28;20050;-69
2023/04/02 07:31:39;;;;;;;18.42;7.60;;;4.30;99.90;;;;;;5049698;28;20106;-69
2023/04/02 07:34:06;;;;;;;24.00;10.25;;;4.30;99.90;;;;;;5025198;28;20040;-68
2023/04/02 07:36:32;;;;;;;21.70;7.53;;;4.20;99.90;;;;;;5021285;28;20081;-69
2023/04/02 07:38:57;;;;;;;15.10;6.78;;;4.30;99.90;;;;;;5003681;28;20474;-69
2023/04/02 07:41:23;;;;;;;21.45;7.10;;;4.30;99.90;;;;;;5015534;28;20091;-69
2023/04/02 07:43:49;;;;;;;36.60;15.68;;;4.30;99.90;;;;;;4998036;28;20099;-69
2023/04/02 07:46:16;;;;;;;22.95;8.20;;;4.30;99.90;;;;;;5045598;28;20044;-68
2023/04/02 07:48:43;;;;;;;50.75;19.75;;;4.30;99.90;;;;;;5014592;28;20182;-69
2023/04/02 07:51:18;;;;;;;10.52;4.75;;;4.30;99.90;;;;;;5014295;28;20049;-69
2023/04/02 07:53:43;;;;;;;43.70;18.90;;;4.40;99.90;;;;;;5013519;28;20102;-71
2023/04/02 07:56:13;;;;;;;46.70;17.20;;;4.30;99.90;;;;;;5020440;28;20436;-71
2023/04/02 07:58:39;;;;;;;66.70;26.13;;;4.30;99.90;;;;;;5034245;28;20049;-70
2023/04/02 08:01:24;;;;;;;63.65;26.17;;;4.30;99.90;;;;;;5043829;28;20120;-71
2023/04/02 08:03:53;;;;;;;51.33;20.02;;;4.30;99.90;;;;;;5041136;28;20508;-71
2023/04/02 08:06:20;;;;;;;55.03;19.40;;;4.40;99.90;;;;;;5009028;28;20048;-70
2023/04/02 08:08:46;;;;;;;67.10;26.17;;;4.50;99.90;;;;;;5036277;28;20096;-70
2023/04/02 08:11:11;;;;;;;27.83;11.02;;;4.60;99.90;;;;;;5006695;28;20045;-69
2023/04/02 08:13:37;;;;;;;52.13;21.15;;;4.80;99.90;;;;;;5031186;28;20051;-68
2023/04/02 08:16:04;;;;;;;69.85;25.65;;;4.90;99.90;;;;;;5026918;28;20037;-71
2023/04/02 08:18:30;;;;;;;86.18;35.83;;;4.90;99.90;;;;;;5039304;28;20041;-71
2023/04/02 08:20:57;;;;;;;66.95;32.55;;;5.00;99.90;;;;;;5043187;28;20037;-70
2023/04/02 08:23:23;;;;;;;8.30;3.40;;;5.10;99.90;;;;;;5017059;28;20124;-71
2023/04/02 08:25:50;;;;;;;16.02;8.45;;;5.20;99.90;;;;;;5030627;28;20508;-69
2023/04/02 08:28:16;;;;;;;12.57;6.50;;;5.20;99.90;;;;;;5032218;28;20129;-69
2023/04/02 08:30:42;;;;;;;7.90;4.88;;;5.20;99.90;;;;;;5052179;28;20140;-69
2023/04/02 08:33:08;;;;;;;4.07;1.30;;;5.20;99.90;;;;;;5004552;28;20037;-69
2023/04/02 08:35:34;;;;;;;6.63;2.03;;;5.30;99.90;;;;;;5016692;28;20050;-68
2023/04/02 08:38:00;;;;;;;3.50;1.17;;;5.30;99.90;;;;;;5016132;28;20033;-71
2023/04/02 08:40:36;;;;;;;5.63;1.50;;;5.30;99.90;;;;;;5029906;28;20037;-69
2023/04/02 08:43:14;;;;;;;6.63;1.33;;;5.40;99.90;;;;;;5024738;28;20506;-71
2023/04/02 08:46:23;;;;;;;10.10;2.35;;;5.50;99.90;;;;;;5034922;28;20096;-70
2023/04/02 08:48:55;;;;;;;3.90;1.45;;;5.60;99.90;;;;;;4934535;29;20115;-71
2023/04/02 08:51:31;;;;;;;6.40;1.77;;;5.70;99.90;;;;;;5022879;28;20520;-71
2023/04/02 08:54:25;;;;;;;5.28;1.38;;;5.80;99.90;;;;;;5018478;28;20358;-70
2023/04/02 08:56:57;;;;;;;4.18;1.30;;;5.80;99.90;;;;;;5029027;28;20478;-71
2023/04/02 08:59:33;;;;;;;4.63;1.15;;;5.90;99.90;;;;;;5021235;28;20386;-70
2023/04/02 09:02:34;;;;;;;6.53;1.63;;;6.00;99.90;;;;;;5020441;28;20041;-70
2023/04/02 09:05:04;;;;;;;6.38;1.70;;;6.10;99.90;;;;;;5037164;28;20045;-71
2023/04/02 09:07:32;;;;;;;5.63;1.70;;;6.10;99.90;;;;;;4998366;28;20045;-67
2023/04/02 09:09:59;;;;;;;6.75;1.38;;;6.20;99.90;;;;;;5015034;28;20406;-67
2023/04/02 09:12:30;;;;;;;3.92;1.00;;;6.10;99.90;;;;;;5018733;28;20120;-68
2023/04/02 09:15:06;;;;;;;9.65;2.58;;;6.20;99.90;;;;;;5005284;28;20037;-69
2023/04/02 09:17:31;;;;;;;4.03;1.20;;;6.20;99.90;;;;;;5039435;28;20474;-69
2023/04/02 09:20:20;;;;;;;7.80;1.50;;;6.20;99.90;;;;;;5015057;28;20052;-68
2023/04/02 09:22:49;;;;;;;3.88;1.25;;;6.20;99.90;;;;;;5033500;28;20546;-69
2023/04/02 09:25:30;;;;;;;3.17;1.17;;;6.40;99.90;;;;;;5012962;28;20049;-69
2023/04/02 09:28:00;;;;;;;6.40;1.30;;;6.50;99.90;;;;;;5045966;28;20397;-69
2023/04/02 09:30:35;;;;;;;3.42;1.42;;;6.60;99.90;;;;;;5031758;28;20094;-70
2023/04/02 09:33:07;;;;;;;4.00;1.20;;;6.60;99.90;;;;;;5013463;28;20041;-69
2023/04/02 09:35:48;;;;;;;5.82;1.67;;;6.60;99.90;;;;;;5030188;28;20041;-69
2023/04/02 09:38:22;;;;;;;3.08;1.02;;;6.60;99.90;;;;;;4997218;28;20426;-69
2023/04/02 09:40:54;;;;;;;4.75;1.77;;;6.60;99.90;;;;;;5014793;28;20095;-69
2023/04/02 09:43:26;;;;;;;7.63;2.85;;;6.60;99.90;;;;;;5022302;28;20067;-70
2023/04/02 09:46:21;;;;;;;5.82;1.88;;;6.60;99.90;;;;;;5035328;28;20131;-70
2023/04/02 09:48:59;;;;;;;5.90;1.17;;;6.60;99.90;;;;;;5034812;28;20038;-70
2023/04/02 09:51:32;;;;;;;3.22;0.90;;;6.60;99.90;;;;;;5007365;28;20045;-69
2023/04/02 09:54:03;;;;;;;3.70;1.10;;;6.70;99.90;;;;;;5028023;28;20041;-69
2023/04/02 09:56:31;;;;;;;5.72;1.42;;;6.70;99.90;;;;;;5031196;28;20049;-69
2023/04/02 09:59:16;;;;;;;3.53;0.95;;;6.80;99.90;;;;;;5031786;28;20037;-69
2023/04/02 10:01:46;;;;;;;4.78;0.98;;;6.80;99.90;;;;;;5029201;28;20045;-69
2023/04/02 10:04:35;;;;;;;2.53;0.80;;;6.80;99.90;;;;;;5019451;28;20045;-69
2023/04/02 10:07:03;;;;;;;1.75;0.70;;;6.80;99.90;;;;;;5026441;28;20053;-69
2023/04/02 10:09:34;;;;;;;3.38;0.95;;;6.90;99.90;;;;;;5008300;28;20256;-68
2023/04/02 10:12:03;;;;;;;5.38;1.33;;;6.90;99.90;;;;;;5028821;28;20484;-70
2023/04/02 10:14:44;;;;;;;5.05;1.00;;;7.00;99.90;;;;;;5010985;28;20076;-69
2023/04/02 10:17:18;;;;;;;2.22;0.75;;;7.10;99.90;;;;;;5012124;28;20128;-69
2023/04/02 10:19:53;;;;;;;3.28;1.10;;;7.10;99.90;;;;;;5012785;28;20056;-68
2023/04/02 10:22:20;;;;;;;3.10;1.10;;;7.20;99.90;;;;;;5011618;28;20088;-69
2023/04/02 10:24:47;;;;;;;7.22;2.70;;;7.20;99.90;;;;;;5030232;28;20088;-72
2023/04/02 10:27:36;;;;;;;39.90;18.60;;;7.10;99.90;;;;;;5006355;28;20513;-72
2023/04/02 10:30:13;;;;;;;14.85;5.22;;;7.10;99.90;;;;;;5028197;28;20060;-72
2023/04/02 10:33:06;;;;;;;6.55;3.05;;;7.20;99.90;;;;;;5015246;28;20045;-71
2023/04/02 10:35:46;;;;;;;22.10;10.70;;;7.20;99.90;;;;;;5026065;28;20048;-71
2023/04/02 10:38:24;;;;;;;6.05;3.30;;;7.20;99.90;;;;;;5030794;28;20041;-71
2023/04/02 10:41:17;;;;;;;3.10;0.88;;;7.40;99.90;;;;;;5012711;28;20476;-72
2023/04/02 10:43:58;;;;;;;3.83;1.05;;;7.50;99.90;;;;;;5038333;28;20060;-72
2023/04/02 10:46:35;;;;;;;2.70;0.80;;;7.60;99.90;;;;;;5021052;28;20490;-72
2023/04/02 10:49:19;;;;;;;4.32;1.40;;;7.50;99.90;;;;;;5017635;28;20037;-68
2023/04/02 10:52:26;;;;;;;7.28;1.05;;;7.50;99.90;;;;;;5037890;28;20040;-68
2023/04/02 10:54:56;;;;;;;5.60;1.00;;;7.50;99.90;;;;;;5007526;28;20129;-68
2023/04/02 10:57:41;;;;;;;4.07;0.80;;;7.40;99.90;;;;;;4989850;28;20204;-68
2023/04/02 11:00:10;;;;;;;5.78;0.98;;;7.40;99.90;;;;;;5031652;28;20124;-68
2023/04/02 11:02:45;;;;;;;3.47;0.80;;;7.50;99.90;;;;;;5031848;28;20096;-69
2023/04/02 11:05:39;;;;;;;2.33;0.80;;;7.60;99.90;;;;;;5019760;28;20494;-68
2023/04/02 11:08:15;;;;;;;2.85;0.90;;;7.60;99.90;;;;;;5027360;28;20624;-69
2023/04/02 11:10:53;;;;;;;6.28;2.83;;;7.60;99.90;;;;;;5014657;28;20049;-69
2023/04/02 11:13:30;;;;;;;5.70;1.30;;;7.60;99.90;;;;;;5030245;28;20060;-69
2023/04/02 11:15:56;;;;;;;4.90;1.00;;;7.70;99.90;;;;;;5031976;28;20428;-69
2023/04/02 11:18:35;;;;;;;4.22;1.02;;;7.70;99.90;;;;;;5026644;28;20551;-69
2023/04/02 11:21:06;;;;;;;5.82;1.10;;;7.70;99.90;;;;;;5029501;28;20042;-69
2023/04/02 11:23:35;;;;;;;4.35;1.20;;;7.70;99.90;;;;;;5004934;28;20068;-69
2023/04/02 11:26:31;;;;;;;4.03;0.70;;;7.70;99.90;;;;;;5030823;28;20505;-69
2023/04/02 11:29:20;;;;;;;4.72;0.98;;;7.70;99.90;;;;;;5011887;28;20137;-69
2023/04/02 11:31:47;;;;;;;3.90;0.90;;;7.80;99.90;;;;;;5022638;28;20573;-69
2023/04/02 11:34:35;;;;;;;5.75;0.93;;;7.90;99.90;;;;;;5011260;28;20359;-70
2023/04/02 11:37:02;;;;;;;2.75;0.80;;;8.00;99.90;;;;;;5013629;28;20077;-69
2023/04/02 11:39:48;;;;;;;5.03;0.80;;;7.90;99.90;;;;;;5048000;28;20375;-70
2023/04/02 11:42:17;;;;;;;5.07;1.38;;;7.90;99.90;;;;;;5030630;28;20072;-70
2023/04/02 11:44:42;;;;;;;3.08;0.60;;;7.80;99.90;;;;;;5031265;28;20138;-70
2023/04/02 11:47:23;;;;;;;3.40;0.80;;;7.80;99.90;;;;;;5013543;28;20505;-69
2023/04/02 11:49:56;;;;;;;4.47;1.48;;;8.00;99.90;;;;;;5030830;28;20049;-69
2023/04/02 11:52:31;;;;;;;5.78;1.38;;;7.90;99.90;;;;;;5043730;28;20506;-69
2023/04/02 11:55:21;;;;;;;7.93;1.15;;;8.00;99.90;;;;;;5009342;28;20095;-69
2023/04/02 11:58:19;;;;;;;2.78;0.88;;;8.00;99.90;;;;;;5033495;28;20124;-69
2023/04/02 12:00:51;;;;;;;2.97;0.93;;;8.00;99.90;;;;;;5038901;28;20112;-69
2023/04/02 12:03:54;;;;;;;5.32;1.70;;;8.10;99.90;;;;;;5052569;28;20045;-69
2023/04/02 12:06:59;;;;;;;5.93;1.20;;;8.20;99.90;;;;;;5034896;28;20071;-69
2023/04/02 12:09:41;;;;;;;11.00;2.97;;;8.40;99.90;;;;;;5021779;28;20087;-68
2023/04/02 12:12:22;;;;;;;4.32;1.00;;;8.40;99.90;;;;;;5034384;28;20386;-69
2023/04/02 12:14:58;;;;;;;3.70;1.00;;;8.40;99.90;;;;;;5016262;28;20041;-69
2023/04/02 12:17:29;;;;;;;4.28;0.90;;;8.40;99.90;;;;;;5022149;28;20049;-70
2023/04/02 12:20:09;;;;;;;5.93;1.05;;;8.20;99.90;;;;;;5020216;28;20060;-69
2023/04/02 12:22:45;;;;;;;2.22;0.90;;;8.20;99.90;;;;;;5032099;28;20133;-69
2023/04/02 12:25:22;;;;;;;2.10;0.63;;;8.20;99.90;;;;;;5016657;28;20120;-69
2023/04/02 12:28:02;;;;;;;5.25;1.00;;;8.20;99.90;;;;;;5051580;28;20049;-70
2023/04/02 12:30:28;;;;;;;4.78;1.13;;;8.20;99.90;;;;;;5034550;28;20413;-70
2023/04/02 12:32:55;;;;;;;6.60;1.90;;;8.40;99.90;;;;;;5052705;28;20507;-69
2023/04/02 12:35:27;;;;;;;2.78;0.88;;;8.40;99.90;;;;;;5033415;28;20421;-70
2023/04/02 12:37:53;;;;;;;4.53;1.02;;;8.40;99.90;;;;;;5051294;28;20138;-70
2023/04/02 12:40:18;;;;;;;3.97;1.05;;;8.40;99.90;;;;;;5033603;28;20132;-69
2023/04/02 12:42:44;;;;;;;2.60;0.75;;;8.40;99.90;;;;;;5051509;28;20052;-70
2023/04/02 12:45:22;;;;;;;4.10;0.90;;;8.30;99.90;;;;;;5032446;28;20040;-71
2023/04/02 12:47:48;;;;;;;2.60;0.70;;;8.30;99.90;;;;;;5034032;28;20037;-71
2023/04/02 12:50:16;;;;;;;4.97;1.00;;;8.40;99.90;;;;;;5024913;28;20433;-70
2023/04/02 12:52:46;;;;;;;2.50;0.70;;;8.40;99.90;;;;;;5030019;28;20512;-70
2023/04/02 12:55:25;;;;;;;2.20;0.90;;;8.40;99.90;;;;;;5033639;28;20049;-69
2023/04/02 12:57:58;;;;;;;2.33;0.68;;;8.30;99.90;;;;;;5051665;28;20045;-70
2023/04/02 13:00:24;;;;;;;4.95;1.00;;;8.30;99.90;;;;;;5014762;28;20049;-70
2023/04/02 13:03:02;;;;;;;4.30;1.27;;;8.30;99.90;;;;;;5017861;28;20045;-70
2023/04/02 13:05:41;;;;;;;4.10;0.90;;;8.30;99.90;;;;;;5013456;28;20056;-70
2023/04/02 13:08:31;;;;;;;4.32;1.23;;;8.40;99.90;;;;;;5013882;28;20090;-70
2023/04/02 13:11:00;;;;;;;3.35;0.90;;;8.50;99.90;;;;;;5031860;28;20048;-70
2023/04/02 13:13:31;;;;;;;2.88;0.85;;;8.50;99.90;;;;;;5018469;28;20707;-70
2023/04/02 13:16:25;;;;;;;2.45;0.73;;;8.60;99.90;;;;;;5050399;28;20517;-69
2023/04/02 13:19:10;;;;;;;4.22;1.00;;;8.70;99.90;;;;;;5006458;28;20045;-71
2023/04/02 13:21:36;;;;;;;1.83;0.70;;;8.70;99.90;;;;;;5026154;28;20489;-70
2023/04/02 13:24:01;;;;;;;3.63;1.13;;;8.70;99.90;;;;;;5046614;28;20044;-69
2023/04/02 13:26:28;;;;;;;4.55;1.02;;;8.80;99.90;;;;;;5028224;28;20044;-69
2023/04/02 13:28:55;;;;;;;2.83;1.17;;;8.70;99.90;;;;;;5017193;28;20044;-71
2023/04/02 13:31:20;;;;;;;3.85;1.10;;;8.70;99.90;;;;;;5015627;28;20114;-69
2023/04/02 13:33:46;;;;;;;6.85;1.17;;;8.60;99.90;;;;;;5033614;28;20040;-69
2023/04/02 13:36:13;;;;;;;3.78;1.10;;;8.70;99.90;;;;;;5032778;28;20045;-69